Lemert, Ohio
Current Conditions -  °F | °C
As of 9:53 AM on Tuesday 21 Oct 2014 (Local Time) from KMNN Reporting Station
Overcast Overcast  
Wind Chill: 43°   Ceiling: 1000
Heat Index: 48°   Visibility: 10mi
Dew Point: 45°   Wind: 10mph
Humidity: 89%   Direction: 340°NNW
Pressure: 29.97"   Gusts: NA
Location:  40.948°N, 83.1346°W
Report Text: KMNN 211353Z AUTO 34009KT 10SM OVC010 09/07 A2997 RMK AO2 SLP150 T00890072 TSNO
Loading
Personal Weather Stations






























Interactive Weather Map
Tropical Storm Tracking
New forecast layout! Learn more

10-Day Weather Forecast

Advertisements
Track Severe Weather on mobile